createdAt,value
2023-05-16T00:00:25.532Z,13.53
2023-05-16T00:02:56.316Z,15.67
2023-05-16T00:05:27.165Z,15.03
2023-05-16T00:07:57.761Z,13.83
2023-05-16T00:10:28.646Z,15.30
2023-05-16T00:13:02.144Z,14.17
2023-05-16T00:15:36.074Z,15.20
2023-05-16T00:18:06.841Z,13.80
2023-05-16T00:20:37.816Z,14.50
2023-05-16T00:23:08.396Z,13.70
2023-05-16T00:25:39.153Z,15.27
2023-05-16T00:28:10.142Z,14.93
2023-05-16T00:30:43.478Z,15.17
2023-05-16T00:33:14.182Z,16.80
2023-05-16T00:35:44.796Z,18.53
2023-05-16T00:38:15.551Z,21.17
2023-05-16T00:40:49.196Z,17.23
2023-05-16T00:43:19.978Z,16.13
2023-05-16T00:45:53.245Z,16.00
2023-05-16T00:48:23.893Z,17.13
2023-05-16T00:50:55.574Z,16.00
2023-05-16T00:53:27.959Z,15.10
2023-05-16T00:56:01.056Z,17.13
2023-05-16T00:58:34.148Z,16.80
2023-05-16T01:01:08.193Z,16.63
2023-05-16T01:03:39.544Z,16.63
2023-05-16T01:06:10.993Z,16.80
2023-05-16T01:08:42.719Z,16.60
2023-05-16T01:11:22.205Z,15.40
2023-05-16T01:14:03.963Z,15.60
2023-05-16T01:16:53.690Z,16.70
2023-05-16T01:19:40.472Z,16.27
2023-05-16T01:22:20.053Z,17.77
2023-05-16T01:25:05.399Z,16.27
2023-05-16T01:27:41.352Z,15.13
2023-05-16T01:30:19.249Z,16.63
2023-05-16T01:32:50.118Z,17.43
2023-05-16T01:35:21.501Z,16.80
2023-05-16T01:38:00.663Z,15.50
2023-05-16T01:40:39.491Z,15.63
2023-05-16T01:43:17.025Z,19.07
2023-05-16T01:45:56.450Z,18.40
2023-05-16T01:48:36.786Z,19.20
2023-05-16T01:51:07.739Z,18.20
2023-05-16T01:53:42.592Z,19.20
2023-05-16T01:56:18.889Z,17.97
2023-05-16T01:58:53.237Z,16.43
2023-05-16T02:01:23.926Z,17.80
2023-05-16T02:03:54.653Z,17.97
2023-05-16T02:06:27.541Z,15.00
2023-05-16T02:09:00.072Z,17.63
2023-05-16T02:11:30.748Z,17.40
2023-05-16T02:14:03.911Z,19.37
2023-05-16T02:16:34.461Z,18.50
2023-05-16T02:19:05.108Z,21.37
2023-05-16T02:21:35.785Z,19.00
2023-05-16T02:24:06.493Z,19.10
2023-05-16T02:26:37.033Z,16.20
2023-05-16T02:29:16.634Z,16.67
2023-05-16T02:31:47.297Z,17.90
2023-05-16T02:34:18.286Z,17.60
2023-05-16T02:36:48.820Z,20.00
2023-05-16T02:39:19.326Z,18.60
2023-05-16T02:41:49.832Z,20.50
2023-05-16T02:44:23.074Z,16.30
2023-05-16T02:46:53.650Z,18.70
2023-05-16T02:49:24.846Z,18.47
2023-05-16T02:51:55.455Z,18.10
2023-05-16T02:54:26.232Z,16.40
2023-05-16T02:56:56.833Z,15.27
2023-05-16T02:59:29.962Z,18.33
2023-05-16T03:02:00.509Z,19.23
2023-05-16T03:04:31.101Z,20.70
2023-05-16T03:07:01.658Z,17.50
2023-05-16T03:09:32.207Z,16.97
2023-05-16T03:12:02.845Z,18.33
2023-05-16T03:14:35.972Z,17.23
2023-05-16T03:17:07.487Z,24.27
2023-05-16T03:19:38.152Z,22.57
2023-05-16T03:22:08.738Z,22.60
2023-05-16T03:24:39.320Z,20.83
2023-05-16T03:27:09.939Z,19.40
2023-05-16T03:29:43.050Z,18.90
2023-05-16T03:32:14.630Z,20.53
2023-05-16T03:34:45.129Z,23.40
2023-05-16T03:37:16.358Z,16.10
2023-05-16T03:39:47.081Z,21.73
2023-05-16T03:42:18.555Z,17.97
2023-05-16T03:44:51.974Z,18.70
2023-05-16T03:47:22.661Z,19.40
2023-05-16T03:49:53.448Z,19.47
2023-05-16T03:52:24.180Z,15.60
2023-05-16T03:54:54.727Z,25.20
2023-05-16T03:57:25.300Z,20.50
2023-05-16T03:59:58.464Z,27.17
2023-05-16T04:02:29.391Z,28.47
2023-05-16T04:05:00.070Z,26.93
2023-05-16T04:07:31.040Z,23.80
2023-05-16T04:10:01.638Z,25.17
2023-05-16T04:12:32.242Z,24.10
2023-05-16T04:15:05.829Z,22.20
2023-05-16T04:17:36.558Z,26.40
2023-05-16T04:20:07.917Z,23.13
2023-05-16T04:22:38.624Z,23.40
2023-05-16T04:25:11.391Z,28.13
2023-05-16T04:27:41.915Z,28.37
2023-05-16T04:30:16.405Z,27.43
2023-05-16T04:32:47.201Z,24.73
2023-05-16T04:35:17.752Z,24.13
2023-05-16T04:37:48.246Z,27.40
2023-05-16T04:40:19.087Z,24.87
2023-05-16T04:42:49.764Z,24.80
2023-05-16T04:45:22.972Z,27.47
2023-05-16T04:47:53.990Z,22.80
2023-05-16T04:50:24.840Z,24.50
2023-05-16T04:52:56.488Z,24.57
2023-05-16T04:55:27.338Z,23.47
2023-05-16T04:57:58.099Z,26.23
2023-05-16T05:00:31.504Z,34.37
2023-05-16T05:03:02.260Z,36.50
2023-05-16T05:05:33.364Z,40.17
2023-05-16T05:08:04.709Z,39.50
2023-05-16T05:10:35.353Z,43.03
2023-05-16T05:13:05.860Z,38.97
2023-05-16T05:15:39.033Z,39.63
2023-05-16T05:18:09.822Z,39.53
2023-05-16T05:20:40.556Z,41.67
2023-05-16T05:23:11.262Z,41.47
2023-05-16T05:25:42.782Z,38.00
2023-05-16T05:28:13.388Z,38.27
2023-05-16T05:30:47.030Z,35.13
2023-05-16T05:33:19.815Z,35.50
2023-05-16T05:35:52.006Z,35.00
2023-05-16T05:38:22.952Z,43.00
2023-05-16T05:40:53.506Z,38.80
2023-05-16T05:43:24.184Z,36.07
2023-05-16T05:45:57.581Z,39.50
2023-05-16T05:48:30.070Z,36.77
2023-05-16T05:51:00.866Z,42.13
2023-05-16T05:53:31.785Z,39.03
2023-05-16T05:56:02.586Z,38.83
2023-05-16T05:58:33.437Z,44.80
2023-05-16T06:01:06.653Z,37.00
2023-05-16T06:03:37.457Z,37.60
2023-05-16T06:06:08.606Z,35.20
2023-05-16T06:08:39.185Z,34.40
2023-05-16T06:11:09.779Z,34.73
2023-05-16T06:13:40.313Z,36.00
2023-05-16T06:16:13.584Z,33.13
2023-05-16T06:18:44.255Z,36.60
2023-05-16T06:21:15.229Z,34.90
2023-05-16T06:23:45.768Z,36.60
2023-05-16T06:26:16.321Z,34.90
2023-05-16T06:28:46.947Z,32.97
2023-05-16T06:31:20.398Z,31.67
2023-05-16T06:33:50.977Z,32.83
2023-05-16T06:36:21.459Z,30.47
2023-05-16T06:38:52.516Z,37.80
2023-05-16T06:41:23.017Z,29.03
2023-05-16T06:43:53.609Z,29.20
2023-05-16T06:46:26.916Z,28.30
2023-05-16T06:48:57.544Z,28.80
2023-05-16T06:51:28.206Z,25.87
2023-05-16T06:53:58.793Z,24.63
2023-05-16T06:56:29.414Z,24.07
2023-05-16T06:59:01.886Z,29.27
2023-05-16T07:01:35.401Z,25.37
2023-05-16T07:04:06.212Z,26.23
2023-05-16T07:06:37.231Z,26.70
2023-05-16T07:09:08.313Z,24.83
2023-05-16T07:11:38.914Z,24.53
2023-05-16T07:14:10.002Z,24.80
2023-05-16T07:16:43.267Z,23.70
2023-05-16T07:19:14.059Z,25.73
2023-05-16T07:21:44.669Z,20.77
2023-05-16T07:24:15.252Z,25.03
2023-05-16T07:26:45.844Z,23.07
2023-05-16T07:29:16.527Z,21.93
2023-05-16T07:31:49.823Z,21.77
2023-05-16T07:34:20.413Z,21.70
2023-05-16T07:36:51.039Z,24.93
2023-05-16T07:39:21.667Z,20.93
2023-05-16T07:41:52.247Z,22.20
2023-05-16T07:44:23.161Z,20.57
2023-05-16T07:46:56.321Z,20.97
2023-05-16T07:49:27.047Z,24.63
2023-05-16T07:51:57.597Z,22.10
2023-05-16T07:54:28.441Z,22.23
2023-05-16T07:56:59.178Z,21.87
2023-05-16T07:59:30.035Z,24.50
2023-05-16T08:02:03.673Z,21.50
2023-05-16T08:04:34.339Z,22.13
2023-05-16T08:07:04.971Z,21.87
2023-05-16T08:09:35.581Z,19.00
2023-05-16T08:12:06.343Z,18.90
2023-05-16T08:14:37.333Z,21.17
2023-05-16T08:17:10.631Z,19.70
2023-05-16T08:19:41.418Z,18.63
2023-05-16T08:22:13.117Z,18.23
2023-05-16T08:24:43.773Z,17.30
2023-05-16T08:27:14.500Z,16.37
2023-05-16T08:29:45.045Z,16.87
2023-05-16T08:32:18.212Z,19.20
2023-05-16T08:34:48.800Z,17.73
2023-05-16T08:37:19.411Z,18.70
2023-05-16T08:39:50.093Z,14.40
2023-05-16T08:42:20.886Z,15.77
2023-05-16T08:44:51.774Z,15.07
2023-05-16T08:47:27.535Z,15.43
2023-05-16T08:50:00.775Z,15.57
2023-05-16T08:52:33.774Z,16.63
2023-05-16T08:55:10.801Z,16.00
2023-05-16T08:57:43.603Z,16.77
2023-05-16T09:00:15.859Z,15.87
2023-05-16T09:02:49.504Z,16.50
2023-05-16T09:05:21.452Z,16.03
2023-05-16T09:07:51.995Z,16.77
2023-05-16T09:10:23.983Z,16.00
2023-05-16T09:12:54.540Z,17.00
2023-05-16T09:15:25.325Z,16.10
2023-05-16T09:17:58.710Z,16.77
2023-05-16T09:20:29.561Z,14.97
2023-05-16T09:23:03.460Z,17.70
2023-05-16T09:25:35.266Z,16.90
2023-05-16T09:28:06.283Z,16.93
2023-05-16T09:30:39.564Z,15.83
2023-05-16T09:33:13.285Z,17.70
2023-05-16T09:35:45.666Z,19.23
2023-05-16T09:38:20.316Z,17.73
2023-05-16T09:40:50.953Z,19.03
2023-05-16T09:43:25.363Z,18.67
2023-05-16T09:45:56.858Z,19.67
2023-05-16T09:48:30.634Z,20.33
2023-05-16T09:51:04.409Z,18.67
2023-05-16T09:53:36.612Z,18.10
2023-05-16T09:56:08.866Z,21.77
2023-05-16T09:58:41.219Z,19.73
2023-05-16T10:01:13.112Z,21.70
2023-05-16T10:03:46.703Z,21.80
2023-05-16T10:06:17.543Z,22.50
2023-05-16T10:08:48.618Z,23.57
2023-05-16T10:11:21.835Z,22.33
2023-05-16T10:13:55.681Z,22.60
2023-05-16T10:16:26.934Z,20.83
2023-05-16T10:19:00.743Z,22.23
2023-05-16T10:21:32.601Z,23.20
2023-05-16T10:24:09.765Z,22.47
2023-05-16T10:26:40.728Z,21.30
2023-05-16T10:29:11.423Z,22.03
2023-05-16T10:31:42.742Z,22.70
2023-05-16T10:34:16.993Z,25.73
2023-05-16T10:36:49.291Z,20.33
2023-05-16T10:39:21.504Z,20.10
2023-05-16T10:41:52.542Z,21.20
2023-05-16T10:44:23.337Z,23.97
2023-05-16T10:46:54.020Z,20.50
2023-05-16T10:49:29.324Z,21.63
2023-05-16T10:52:09.392Z,20.07
2023-05-16T10:54:42.232Z,32.40
2023-05-16T10:57:15.470Z,20.33
2023-05-16T10:59:47.976Z,18.83
2023-05-16T11:02:27.903Z,21.17
2023-05-16T11:05:03.254Z,19.77
2023-05-16T11:07:36.261Z,19.30
2023-05-16T11:10:09.768Z,18.33
2023-05-16T11:12:45.286Z,17.17
2023-05-16T11:15:28.584Z,17.30
2023-05-16T11:18:11.325Z,17.10
2023-05-16T11:20:45.124Z,17.30
2023-05-16T11:23:26.408Z,15.80
2023-05-16T11:26:00.830Z,19.10
2023-05-16T11:28:31.879Z,18.37
2023-05-16T11:31:05.423Z,17.90
2023-05-16T11:33:37.330Z,16.57
2023-05-16T11:36:16.328Z,18.43
2023-05-16T11:38:47.950Z,18.60
2023-05-16T11:41:18.552Z,18.00
2023-05-16T11:43:49.469Z,18.23
2023-05-16T11:46:20.269Z,15.03
2023-05-16T11:48:51.848Z,17.30
2023-05-16T11:51:25.566Z,15.00
2023-05-16T11:53:56.488Z,15.53
2023-05-16T11:56:30.188Z,15.73
2023-05-16T11:59:01.068Z,16.63
2023-05-16T12:01:37.357Z,14.37
2023-05-16T12:04:12.772Z,15.17
2023-05-16T12:06:48.567Z,15.60
2023-05-16T12:09:19.483Z,12.67
2023-05-16T12:11:50.417Z,13.30
2023-05-16T12:14:21.552Z,12.70
2023-05-16T12:16:54.127Z,13.63
2023-05-16T12:19:25.435Z,13.90
2023-05-16T12:21:59.129Z,11.70
2023-05-16T12:24:34.239Z,13.93
2023-05-16T12:27:04.729Z,10.63
2023-05-16T12:29:35.374Z,10.10
2023-05-16T12:32:06.270Z,10.87
2023-05-16T12:34:36.824Z,10.27
2023-05-16T12:37:10.227Z,9.90
2023-05-16T12:39:41.582Z,11.50
2023-05-16T12:42:14.562Z,9.57
2023-05-16T12:44:48.922Z,10.90
2023-05-16T12:47:19.503Z,10.30
2023-05-16T12:49:51.437Z,9.10
2023-05-16T12:52:25.059Z,8.67
2023-05-16T12:54:55.622Z,9.67
2023-05-16T12:57:26.581Z,7.67
2023-05-16T12:59:57.377Z,7.50
2023-05-16T13:02:28.317Z,8.07
2023-05-16T13:04:58.886Z,7.70
2023-05-16T13:07:32.000Z,7.17
2023-05-16T13:10:02.621Z,6.60
2023-05-16T13:12:33.165Z,6.37
2023-05-16T13:15:03.693Z,6.87
2023-05-16T13:17:34.422Z,7.27
2023-05-16T13:20:08.498Z,7.10
2023-05-16T13:22:41.687Z,8.00
2023-05-16T13:25:13.562Z,7.03
2023-05-16T13:27:44.245Z,6.67
2023-05-16T13:30:15.340Z,7.27
2023-05-16T13:32:46.070Z,6.67
2023-05-16T13:35:16.725Z,5.57
2023-05-16T13:37:49.876Z,7.07
2023-05-16T13:40:20.446Z,6.80
2023-05-16T13:42:51.872Z,6.90
2023-05-16T13:45:22.502Z,6.30
2023-05-16T13:47:53.210Z,7.40
2023-05-16T13:50:23.868Z,6.93
2023-05-16T13:52:57.029Z,5.77
2023-05-16T13:55:28.717Z,6.73
2023-05-16T13:58:00.227Z,6.53
2023-05-16T14:00:44.547Z,6.50
2023-05-16T14:03:16.616Z,5.80
2023-05-16T14:05:50.220Z,6.20
2023-05-16T14:08:23.487Z,4.77
2023-05-16T14:10:54.496Z,5.70
2023-05-16T14:13:25.045Z,5.40
2023-05-16T14:15:55.576Z,5.80
2023-05-16T14:18:26.237Z,4.60
2023-05-16T14:20:57.005Z,4.73
2023-05-16T14:23:30.194Z,5.10
2023-05-16T14:26:01.129Z,5.30
2023-05-16T14:28:32.930Z,5.20
2023-05-16T14:31:03.729Z,4.93
2023-05-16T14:33:34.257Z,5.20
2023-05-16T14:36:07.073Z,5.80
2023-05-16T14:38:41.828Z,5.47
2023-05-16T14:41:12.422Z,4.30
2023-05-16T14:43:42.959Z,4.30
2023-05-16T14:46:14.176Z,4.50
2023-05-16T14:48:44.764Z,4.73
2023-05-16T14:51:15.468Z,4.20
2023-05-16T14:53:48.709Z,4.03
2023-05-16T14:56:19.628Z,4.23
2023-05-16T14:58:50.212Z,4.77
2023-05-16T15:01:20.894Z,4.83
2023-05-16T15:03:55.940Z,4.70
2023-05-16T15:06:27.722Z,4.80
2023-05-16T15:09:00.836Z,4.17
2023-05-16T15:11:32.427Z,6.17
2023-05-16T15:14:03.004Z,4.37
2023-05-16T15:16:33.607Z,3.80
2023-05-16T15:19:04.274Z,4.20
2023-05-16T15:21:35.094Z,3.70
2023-05-16T15:24:08.976Z,3.57
2023-05-16T15:26:40.059Z,4.60
2023-05-16T15:29:11.120Z,3.70
2023-05-16T15:31:41.762Z,4.50
2023-05-16T15:34:12.369Z,4.30
2023-05-16T15:36:42.901Z,3.50
2023-05-16T15:39:16.441Z,4.03
2023-05-16T15:42:08.561Z,2.97
2023-05-16T15:44:38.024Z,3.40
2023-05-16T15:47:09.510Z,3.77
2023-05-16T15:49:40.119Z,4.13
2023-05-16T15:52:10.870Z,3.03
2023-05-16T15:54:44.278Z,3.53
2023-05-16T15:57:14.832Z,3.80
2023-05-16T15:59:45.341Z,3.77
2023-05-16T16:02:16.181Z,3.43
2023-05-16T16:04:46.750Z,3.50
2023-05-16T16:07:17.290Z,3.20
2023-05-16T16:09:50.828Z,3.77
2023-05-16T16:12:21.494Z,2.50
2023-05-16T16:14:52.208Z,4.33
2023-05-16T16:17:22.679Z,3.57
2023-05-16T16:19:53.207Z,3.73
2023-05-16T16:22:23.862Z,2.90
2023-05-16T16:24:56.947Z,2.33
2023-05-16T16:27:27.609Z,3.07
2023-05-16T16:29:58.192Z,2.90
2023-05-16T16:32:28.705Z,3.20
2023-05-16T16:34:59.352Z,3.67
2023-05-16T16:37:29.981Z,2.70
2023-05-16T16:40:03.126Z,3.07
2023-05-16T16:42:33.655Z,3.47
2023-05-16T16:45:04.299Z,4.53
2023-05-16T16:47:35.202Z,3.30
2023-05-16T16:50:06.205Z,2.90
2023-05-16T16:52:37.095Z,3.60
2023-05-16T16:55:10.988Z,2.83
2023-05-16T16:57:41.568Z,3.57
2023-05-16T17:00:14.363Z,2.63
2023-05-16T17:02:44.987Z,2.90
2023-05-16T17:05:15.544Z,4.27
2023-05-16T17:07:46.740Z,2.80
2023-05-16T17:10:21.137Z,2.47
2023-05-16T17:12:51.818Z,3.70
2023-05-16T17:15:22.456Z,2.63
2023-05-16T17:17:55.939Z,3.10
2023-05-16T17:20:26.799Z,2.00
2023-05-16T17:22:57.334Z,2.80
2023-05-16T17:25:31.247Z,3.60
2023-05-16T17:28:02.155Z,2.80
2023-05-16T17:30:32.720Z,3.20
2023-05-16T17:33:03.312Z,3.30
2023-05-16T17:35:34.063Z,3.80
2023-05-16T17:38:04.582Z,2.80
2023-05-16T17:40:37.784Z,2.60
2023-05-16T17:43:08.442Z,2.90
2023-05-16T17:45:39.039Z,2.40
2023-05-16T17:48:10.200Z,2.60
2023-05-16T17:50:41.387Z,2.97
2023-05-16T17:53:11.932Z,4.10
2023-05-16T17:55:45.322Z,2.93
2023-05-16T17:58:16.168Z,2.87
2023-05-16T18:00:46.934Z,2.27
2023-05-16T18:03:17.659Z,3.37
2023-05-16T18:05:49.701Z,3.50
2023-05-16T18:08:20.292Z,2.50
2023-05-16T18:10:53.454Z,2.93
2023-05-16T18:13:25.418Z,2.63
2023-05-16T18:15:56.015Z,3.30
2023-05-16T18:18:27.293Z,3.07
2023-05-16T18:20:58.283Z,2.47
2023-05-16T18:23:28.876Z,2.70
2023-05-16T18:26:02.104Z,2.47
2023-05-16T18:28:32.746Z,3.00
2023-05-16T18:31:03.400Z,2.40
2023-05-16T18:33:34.168Z,2.40
2023-05-16T18:36:04.680Z,3.20
2023-05-16T18:38:35.354Z,2.03
2023-05-16T18:41:08.953Z,2.60
2023-05-16T18:43:39.581Z,2.70
2023-05-16T18:46:10.124Z,2.20
2023-05-16T18:48:40.741Z,2.33
2023-05-16T18:51:12.242Z,3.07
2023-05-16T18:53:42.776Z,2.20
2023-05-16T18:56:16.109Z,2.57
2023-05-16T18:58:46.979Z,2.50
2023-05-16T19:01:17.941Z,2.30
2023-05-16T19:03:48.626Z,2.73
2023-05-16T19:06:19.280Z,1.90
2023-05-16T19:08:50.021Z,2.27
2023-05-16T19:11:23.219Z,2.20
2023-05-16T19:13:54.027Z,2.30
2023-05-16T19:16:24.747Z,2.40
2023-05-16T19:18:55.372Z,2.33
2023-05-16T19:21:26.680Z,2.27
2023-05-16T19:23:57.370Z,2.07
2023-05-16T19:26:31.148Z,2.10
2023-05-16T19:29:02.047Z,2.50
2023-05-16T19:31:32.692Z,1.80
2023-05-16T19:34:03.254Z,1.97
2023-05-16T19:36:34.092Z,1.97
2023-05-16T19:39:04.653Z,2.97
2023-05-16T19:41:37.879Z,1.97
2023-05-16T19:44:08.633Z,2.40
2023-05-16T19:46:39.406Z,2.47
2023-05-16T19:49:10.930Z,4.70
2023-05-16T19:51:42.400Z,12.53
2023-05-16T19:54:13.534Z,2.30
2023-05-16T19:56:50.038Z,1.50
2023-05-16T19:59:20.938Z,2.20
2023-05-16T20:01:51.539Z,2.30
2023-05-16T20:04:22.299Z,2.00
2023-05-16T20:06:53.086Z,2.00
2023-05-16T20:09:23.822Z,1.60
2023-05-16T20:11:57.572Z,2.57
2023-05-16T20:14:29.281Z,1.90
2023-05-16T20:17:01.804Z,1.90
2023-05-16T20:19:32.651Z,2.10
2023-05-16T20:22:03.488Z,2.03
2023-05-16T20:24:34.129Z,2.37
2023-05-16T20:27:07.748Z,2.93
2023-05-16T20:29:38.740Z,1.50
2023-05-16T20:32:09.774Z,2.60
2023-05-16T20:34:41.734Z,2.10
2023-05-16T20:37:12.482Z,1.90
2023-05-16T20:39:43.189Z,1.90
2023-05-16T20:42:16.583Z,2.30
2023-05-16T20:44:47.140Z,2.50
2023-05-16T20:47:17.924Z,2.20
2023-05-16T20:49:48.511Z,1.67
2023-05-16T20:52:21.281Z,2.50
2023-05-16T20:54:52.770Z,2.17
2023-05-16T20:57:25.953Z,2.23
2023-05-16T20:59:56.655Z,2.53
2023-05-16T21:02:27.260Z,2.13
2023-05-16T21:05:02.167Z,2.23
2023-05-16T21:07:41.213Z,2.30
2023-05-16T21:10:13.251Z,2.10
2023-05-16T21:12:46.451Z,2.20
2023-05-16T21:15:17.030Z,1.90
2023-05-16T21:17:47.668Z,1.97
2023-05-16T21:20:18.470Z,1.53
2023-05-16T21:22:49.035Z,1.80
2023-05-16T21:25:19.672Z,1.80
2023-05-16T21:27:52.977Z,1.70
2023-05-16T21:30:23.644Z,1.80
2023-05-16T21:32:54.222Z,2.37
2023-05-16T21:35:25.417Z,1.60
2023-05-16T21:37:56.123Z,2.30
2023-05-16T21:40:28.960Z,1.60
2023-05-16T21:43:02.219Z,1.60
2023-05-16T21:45:32.816Z,1.90
2023-05-16T21:48:03.474Z,1.80
2023-05-16T21:50:34.067Z,1.73
2023-05-16T21:53:04.826Z,1.80
2023-05-16T21:55:35.447Z,1.83
2023-05-16T21:58:08.660Z,2.27
2023-05-16T22:00:39.349Z,3.07
2023-05-16T22:03:09.952Z,1.73
2023-05-16T22:05:40.562Z,2.00
2023-05-16T22:08:11.586Z,2.23
2023-05-16T22:10:42.220Z,2.03
2023-05-16T22:13:15.480Z,1.60
2023-05-16T22:15:52.171Z,1.83
2023-05-16T22:18:34.156Z,1.60
2023-05-16T22:21:04.914Z,2.90
2023-05-16T22:23:35.623Z,1.70
2023-05-16T22:26:06.425Z,1.87
2023-05-16T22:28:39.596Z,2.10
2023-05-16T22:31:10.141Z,2.27
2023-05-16T22:33:40.783Z,2.00
2023-05-16T22:36:11.858Z,2.07
2023-05-16T22:38:42.447Z,1.53
2023-05-16T22:41:13.097Z,1.90
2023-05-16T22:43:46.222Z,1.70
2023-05-16T22:46:16.946Z,2.90
2023-05-16T22:48:47.565Z,1.67
2023-05-16T22:51:18.214Z,2.10
2023-05-16T22:53:48.852Z,1.67
2023-05-16T22:56:19.416Z,1.90
2023-05-16T22:58:52.620Z,2.03
2023-05-16T23:01:23.236Z,1.40
2023-05-16T23:03:54.086Z,2.17
2023-05-16T23:06:24.789Z,2.40
2023-05-16T23:08:55.320Z,1.70
2023-05-16T23:11:25.920Z,1.60
2023-05-16T23:13:59.115Z,1.80
2023-05-16T23:16:29.734Z,1.60
2023-05-16T23:19:00.502Z,2.13
2023-05-16T23:21:31.497Z,2.50
2023-05-16T23:24:02.316Z,1.80
2023-05-16T23:26:33.004Z,1.90
2023-05-16T23:29:06.429Z,1.90
2023-05-16T23:31:37.301Z,1.93
2023-05-16T23:34:07.972Z,1.60
2023-05-16T23:36:38.714Z,1.87
2023-05-16T23:39:09.948Z,1.97
2023-05-16T23:41:40.543Z,1.80
2023-05-16T23:44:13.731Z,2.10
2023-05-16T23:46:44.470Z,1.90
2023-05-16T23:49:15.038Z,2.73
2023-05-16T23:54:23.287Z,1.87
2023-05-16T23:56:53.888Z,2.10
2023-05-16T23:59:27.419Z,2.00
